createdAt,value
2023-04-26T00:01:02.498Z,98748.50
2023-04-26T00:03:30.740Z,98745.94
2023-04-26T00:06:02.267Z,98746.94
2023-04-26T00:08:30.212Z,98754.53
2023-04-26T00:10:58.041Z,98756.44
2023-04-26T00:13:26.035Z,98755.41
2023-04-26T00:15:54.087Z,98757.41
2023-04-26T00:18:21.878Z,98758.78
2023-04-26T00:20:49.974Z,98760.38
2023-04-26T00:23:17.942Z,98775.69
2023-04-26T00:25:45.647Z,98773.16
2023-04-26T00:28:13.361Z,98769.06
2023-04-26T00:30:41.439Z,98776.97
2023-04-26T00:33:10.428Z,98768.66
2023-04-26T00:35:38.078Z,98783.88
2023-04-26T00:38:07.310Z,98785.75
2023-04-26T00:40:34.980Z,98781.69
2023-04-26T00:43:03.537Z,98773.66
2023-04-26T00:45:31.812Z,98770.72
2023-04-26T00:48:01.765Z,98776.03
2023-04-26T00:50:30.173Z,98779.63
2023-04-26T00:52:58.973Z,98777.25
2023-04-26T00:55:27.232Z,98775.59
2023-04-26T00:57:55.500Z,98770.62
2023-04-26T01:00:23.556Z,98785.03
2023-04-26T01:02:52.019Z,98783.19
2023-04-26T01:05:22.120Z,98788.84
2023-04-26T01:07:50.257Z,98786.28
2023-04-26T01:10:18.166Z,98784.09
2023-04-26T01:12:45.968Z,98793.59
2023-04-26T01:15:14.020Z,98793.31
2023-04-26T01:17:46.463Z,98786.84
2023-04-26T01:20:15.139Z,98798.84
2023-04-26T01:22:42.836Z,98792.28
2023-04-26T01:25:12.319Z,98801.72
2023-04-26T01:27:40.231Z,98795.47
2023-04-26T01:30:08.879Z,98793.38
2023-04-26T01:32:36.844Z,98801.09
2023-04-26T01:35:06.191Z,98806.22
2023-04-26T01:37:33.889Z,98804.37
2023-04-26T01:40:01.724Z,98804.63
2023-04-26T01:42:29.768Z,98809.00
2023-04-26T01:45:00.661Z,98816.41
2023-04-26T01:47:48.436Z,98819.81
2023-04-26T01:50:16.814Z,98817.22
2023-04-26T01:52:44.438Z,98823.50
2023-04-26T01:55:12.485Z,98815.50
2023-04-26T01:57:40.526Z,98814.13
2023-04-26T02:00:09.138Z,98821.56
2023-04-26T02:02:41.023Z,98823.16
2023-04-26T02:05:11.127Z,98819.47
2023-04-26T02:07:38.843Z,98826.13
2023-04-26T02:10:07.756Z,98822.75
2023-04-26T02:12:35.611Z,98822.34
2023-04-26T02:15:03.484Z,98829.09
2023-04-26T02:17:31.528Z,98836.31
2023-04-26T02:19:59.481Z,98834.22
2023-04-26T02:22:27.161Z,98835.44
2023-04-26T02:24:55.186Z,98838.50
2023-04-26T02:27:27.628Z,98841.47
2023-04-26T02:29:58.881Z,98839.66
2023-04-26T02:32:26.576Z,98839.28
2023-04-26T02:34:54.571Z,98840.78
2023-04-26T02:37:22.283Z,98838.28
2023-04-26T02:39:51.747Z,98842.06
2023-04-26T02:42:20.234Z,98837.41
2023-04-26T02:44:47.999Z,98840.56
2023-04-26T02:47:15.718Z,98831.16
2023-04-26T02:49:43.958Z,98841.28
2023-04-26T02:52:11.788Z,98840.88
2023-04-26T02:54:39.554Z,98843.16
2023-04-26T02:57:07.643Z,98835.53
2023-04-26T02:59:35.361Z,98847.56
2023-04-26T03:02:03.175Z,98852.66
2023-04-26T03:04:33.635Z,98852.56
2023-04-26T03:07:02.582Z,98859.25
2023-04-26T03:09:30.745Z,98866.34
2023-04-26T03:11:58.760Z,98868.81
2023-04-26T03:14:26.639Z,98863.66
2023-04-26T03:16:57.659Z,98884.91
2023-04-26T03:19:25.773Z,98885.81
2023-04-26T03:21:54.881Z,98882.44
2023-04-26T03:24:23.314Z,98889.94
2023-04-26T03:26:51.421Z,98900.06
2023-04-26T03:29:19.620Z,98899.69
2023-04-26T03:31:47.466Z,98900.53
2023-04-26T03:34:15.422Z,98907.09
2023-04-26T03:36:43.583Z,98907.59
2023-04-26T03:39:11.177Z,98908.78
2023-04-26T03:41:39.314Z,98921.66
2023-04-26T03:44:07.576Z,98922.12
2023-04-26T03:46:35.364Z,98917.00
2023-04-26T03:49:03.480Z,98922.44
2023-04-26T03:51:31.373Z,98925.09
2023-04-26T03:53:59.754Z,98934.78
2023-04-26T03:56:27.637Z,98925.97
2023-04-26T03:58:55.496Z,98929.28
2023-04-26T04:01:23.355Z,98926.47
2023-04-26T04:03:52.219Z,98937.06
2023-04-26T04:06:20.399Z,98948.34
2023-04-26T04:08:48.056Z,98953.78
2023-04-26T04:11:16.890Z,98948.84
2023-04-26T04:13:44.705Z,98952.62
2023-04-26T04:16:12.603Z,98967.03
2023-04-26T04:18:41.629Z,98959.16
2023-04-26T04:21:09.734Z,98966.53
2023-04-26T04:23:38.422Z,98971.00
2023-04-26T04:26:08.483Z,98979.03
2023-04-26T04:28:36.439Z,98970.94
2023-04-26T04:31:04.217Z,98979.00
2023-04-26T04:33:32.573Z,98976.12
2023-04-26T04:36:00.643Z,98974.59
2023-04-26T04:38:28.625Z,98980.13
2023-04-26T04:40:56.647Z,98985.47
2023-04-26T04:43:24.694Z,98983.69
2023-04-26T04:45:52.449Z,98976.84
2023-04-26T04:48:20.341Z,98979.13
2023-04-26T04:50:49.380Z,98980.09
2023-04-26T04:53:17.233Z,98985.75
2023-04-26T04:55:45.135Z,98982.81
2023-04-26T04:58:13.227Z,98987.28
2023-04-26T05:00:43.354Z,98981.53
2023-04-26T05:03:13.684Z,98989.06
2023-04-26T05:05:41.560Z,98990.75
2023-04-26T05:08:09.994Z,98995.59
2023-04-26T05:10:45.682Z,99000.00
2023-04-26T05:13:13.663Z,98998.47
2023-04-26T05:15:41.620Z,98996.09
2023-04-26T05:18:09.517Z,99004.28
2023-04-26T05:20:37.567Z,99008.66
2023-04-26T05:23:05.607Z,99023.34
2023-04-26T05:25:37.171Z,99021.75
2023-04-26T05:28:05.919Z,99018.50
2023-04-26T05:30:34.224Z,99022.06
2023-04-26T05:33:03.464Z,99022.53
2023-04-26T05:35:31.697Z,99028.31
2023-04-26T05:37:59.426Z,99032.69
2023-04-26T05:40:27.435Z,99033.87
2023-04-26T05:42:55.571Z,99036.94
2023-04-26T05:45:23.313Z,99042.59
2023-04-26T05:47:51.153Z,99039.91
2023-04-26T05:50:19.295Z,99037.91
2023-04-26T05:52:47.004Z,99037.03
2023-04-26T05:55:14.792Z,99043.56
2023-04-26T05:57:45.164Z,99049.41
2023-04-26T06:00:13.766Z,99048.41
2023-04-26T06:02:42.336Z,99050.28
2023-04-26T06:05:12.519Z,99050.16
2023-04-26T06:07:40.432Z,99049.19
2023-04-26T06:10:08.842Z,99061.66
2023-04-26T06:12:39.119Z,99055.84
2023-04-26T06:15:07.947Z,99056.87
2023-04-26T06:17:36.334Z,99058.63
2023-04-26T06:20:04.780Z,99056.87
2023-04-26T06:22:32.948Z,99058.38
2023-04-26T06:25:00.951Z,99053.66
2023-04-26T06:27:28.587Z,99060.88
2023-04-26T06:29:56.406Z,99063.84
2023-04-26T06:32:24.680Z,99061.66
2023-04-26T06:34:52.326Z,99060.81
2023-04-26T06:37:20.236Z,99065.88
2023-04-26T06:39:49.050Z,99063.22
2023-04-26T06:42:16.910Z,99052.75
2023-04-26T06:44:47.287Z,99065.81
2023-04-26T06:47:17.596Z,99069.28
2023-04-26T06:49:46.800Z,99064.78
2023-04-26T06:52:14.578Z,99063.00
2023-04-26T06:54:53.687Z,99067.00
2023-04-26T06:57:24.632Z,99074.03
2023-04-26T06:59:52.663Z,99070.28
2023-04-26T07:02:21.045Z,99060.22
2023-04-26T07:04:49.122Z,99066.25
2023-04-26T07:07:17.376Z,99064.31
2023-04-26T07:09:45.222Z,99069.81
2023-04-26T07:12:13.157Z,99071.87
2023-04-26T07:14:41.142Z,99068.38
2023-04-26T07:17:10.172Z,99072.22
2023-04-26T07:19:37.914Z,99066.38
2023-04-26T07:22:05.853Z,99071.66
2023-04-26T07:24:33.947Z,99069.53
2023-04-26T07:27:01.539Z,99084.41
2023-04-26T07:29:29.662Z,99081.41
2023-04-26T07:31:57.672Z,99086.78
2023-04-26T07:34:25.713Z,99079.03
2023-04-26T07:36:53.769Z,99089.41
2023-04-26T07:39:21.438Z,99090.59
2023-04-26T07:41:49.170Z,99092.53
2023-04-26T07:44:17.190Z,99106.66
2023-04-26T07:46:44.859Z,99110.94
2023-04-26T07:49:13.486Z,99119.22
2023-04-26T07:51:43.987Z,99122.91
2023-04-26T07:54:11.611Z,99132.16
2023-04-26T07:56:39.442Z,99126.97
2023-04-26T07:59:07.751Z,99137.06
2023-04-26T08:01:35.395Z,99131.09
2023-04-26T08:04:03.716Z,99133.16
2023-04-26T08:06:31.514Z,99140.22
2023-04-26T08:08:59.250Z,99132.37
2023-04-26T08:11:27.251Z,99128.28
2023-04-26T08:13:55.277Z,99132.47
2023-04-26T08:16:23.124Z,99141.03
2023-04-26T08:18:52.682Z,99137.06
2023-04-26T08:21:20.802Z,99146.75
2023-04-26T08:23:48.435Z,99143.75
2023-04-26T08:26:16.392Z,99141.97
2023-04-26T08:28:44.321Z,99145.66
2023-04-26T08:31:12.251Z,99158.19
2023-04-26T08:33:40.332Z,99157.84
2023-04-26T08:36:08.272Z,99159.34
2023-04-26T08:38:36.025Z,99168.34
2023-04-26T08:41:05.172Z,99168.34
2023-04-26T08:43:33.860Z,99163.75
2023-04-26T08:46:01.609Z,99155.22
2023-04-26T08:48:33.746Z,99159.50
2023-04-26T08:51:01.959Z,99153.66
2023-04-26T08:53:30.534Z,99161.72
2023-04-26T08:55:58.388Z,99171.03
2023-04-26T08:58:26.184Z,99161.25
2023-04-26T09:00:54.252Z,99162.19
2023-04-26T09:03:23.605Z,99165.78
2023-04-26T09:05:52.205Z,99164.59
2023-04-26T09:08:20.261Z,99168.25
2023-04-26T09:10:48.006Z,99172.81
2023-04-26T09:13:15.681Z,99177.25
2023-04-26T09:15:43.768Z,99171.69
2023-04-26T09:18:22.946Z,99180.72
2023-04-26T09:21:04.896Z,99168.63
2023-04-26T09:23:35.738Z,99176.38
2023-04-26T09:26:19.772Z,99176.88
2023-04-26T09:28:47.933Z,99170.72
2023-04-26T09:31:40.175Z,99169.38
2023-04-26T09:34:09.340Z,99176.66
2023-04-26T09:36:50.727Z,99177.13
2023-04-26T09:39:30.277Z,99161.97
2023-04-26T09:41:58.986Z,99166.03
2023-04-26T09:44:27.027Z,99170.56
2023-04-26T09:47:03.305Z,99174.91
2023-04-26T09:49:47.497Z,99161.69
2023-04-26T09:52:15.294Z,99159.47
2023-04-26T09:54:54.082Z,99159.75
2023-04-26T09:57:22.509Z,99156.88
2023-04-26T09:59:55.375Z,99155.00
2023-04-26T10:02:25.336Z,99165.47
2023-04-26T10:04:55.194Z,99164.56
2023-04-26T10:07:24.878Z,99166.25
2023-04-26T10:09:53.640Z,99161.53
2023-04-26T10:12:21.362Z,99168.00
2023-04-26T10:14:49.152Z,99159.62
2023-04-26T10:17:19.116Z,99162.41
2023-04-26T10:19:48.627Z,99156.25
2023-04-26T10:22:21.274Z,99160.38
2023-04-26T10:24:49.690Z,99161.25
2023-04-26T10:27:17.388Z,99158.69
2023-04-26T10:29:55.022Z,99170.09
2023-04-26T10:32:23.508Z,99167.03
2023-04-26T10:35:10.642Z,99162.69
2023-04-26T10:38:01.651Z,99166.66
2023-04-26T10:40:36.956Z,99169.31
2023-04-26T10:43:11.472Z,99171.00
2023-04-26T10:45:40.112Z,99166.19
2023-04-26T10:48:41.858Z,99167.69
2023-04-26T10:51:11.706Z,99164.09
2023-04-26T10:53:45.632Z,99170.31
2023-04-26T10:56:40.265Z,99167.94
2023-04-26T11:01:46.536Z,99164.09
2023-04-26T11:04:14.691Z,99156.13
2023-04-26T11:06:52.282Z,99158.31
2023-04-26T11:09:39.138Z,99158.88
2023-04-26T11:12:13.987Z,99155.06
2023-04-26T11:14:42.993Z,99163.09
2023-04-26T11:17:11.576Z,99159.28
2023-04-26T11:19:41.541Z,99159.38
2023-04-26T11:22:09.864Z,99161.53
2023-04-26T11:24:37.485Z,99158.59
2023-04-26T11:27:14.691Z,99169.28
2023-04-26T11:29:42.381Z,99162.59
2023-04-26T11:32:10.387Z,99170.84
2023-04-26T11:34:38.900Z,99170.87
2023-04-26T11:37:07.115Z,99171.75
2023-04-26T11:39:35.630Z,99169.72
2023-04-26T11:42:11.338Z,99167.84
2023-04-26T11:44:40.681Z,99171.00
2023-04-26T11:47:09.513Z,99178.06
2023-04-26T11:49:37.754Z,99177.00
2023-04-26T11:52:05.755Z,99172.00
2023-04-26T11:54:36.129Z,99165.50
2023-04-26T11:57:16.059Z,99175.78
2023-04-26T11:59:44.888Z,99176.34
2023-04-26T12:02:12.607Z,99171.88
2023-04-26T12:04:41.183Z,99172.69
2023-04-26T12:07:09.400Z,99170.75
2023-04-26T12:09:41.055Z,99176.09
2023-04-26T12:12:09.264Z,99175.84
2023-04-26T12:14:39.617Z,99176.63
2023-04-26T12:17:07.854Z,99180.31
2023-04-26T12:19:37.197Z,99172.56
2023-04-26T12:22:08.316Z,99177.34
2023-04-26T12:24:36.199Z,99178.37
2023-04-26T12:27:05.232Z,99194.00
2023-04-26T12:29:33.090Z,99181.75
2023-04-26T12:32:01.771Z,99182.91
2023-04-26T12:34:29.596Z,99176.84
2023-04-26T12:36:57.390Z,99181.91
2023-04-26T12:39:25.344Z,99186.91
2023-04-26T12:41:53.012Z,99187.75
2023-04-26T12:44:22.473Z,99193.16
2023-04-26T12:46:50.932Z,99190.41
2023-04-26T12:49:18.642Z,99188.66
2023-04-26T12:51:46.253Z,99193.72
2023-04-26T12:54:14.643Z,99182.50
2023-04-26T12:56:42.273Z,99183.94
2023-04-26T12:59:10.217Z,99183.72
2023-04-26T13:01:38.451Z,99186.63
2023-04-26T13:04:06.627Z,99185.06
2023-04-26T13:06:34.949Z,99193.81
2023-04-26T13:09:05.730Z,99190.84
2023-04-26T13:11:33.758Z,99200.91
2023-04-26T13:14:01.473Z,99211.69
2023-04-26T13:16:29.721Z,99201.44
2023-04-26T13:18:57.471Z,99201.25
2023-04-26T13:21:25.213Z,99211.62
2023-04-26T13:23:53.319Z,99200.84
2023-04-26T13:26:20.976Z,99208.06
2023-04-26T13:28:48.678Z,99206.16
2023-04-26T13:31:16.697Z,99212.75
2023-04-26T13:33:45.076Z,99205.91
2023-04-26T13:36:12.744Z,99212.12
2023-04-26T13:38:40.776Z,99207.59
2023-04-26T13:41:08.865Z,99221.03
2023-04-26T13:43:36.715Z,99227.41
2023-04-26T13:46:04.809Z,99227.84
2023-04-26T13:48:32.501Z,99225.47
2023-04-26T13:51:00.286Z,99223.37
2023-04-26T13:53:28.197Z,99227.16
2023-04-26T13:55:55.820Z,99230.34
2023-04-26T13:58:23.553Z,99237.28
2023-04-26T14:00:51.599Z,99229.47
2023-04-26T14:03:19.698Z,99236.13
2023-04-26T14:05:47.460Z,99234.47
2023-04-26T14:08:15.386Z,99237.75
2023-04-26T14:10:44.262Z,99240.06
2023-04-26T14:13:17.594Z,99230.13
2023-04-26T14:15:45.580Z,99218.03
2023-04-26T14:18:13.368Z,99229.31
2023-04-26T14:20:41.211Z,99229.72
2023-04-26T14:23:09.375Z,99234.50
2023-04-26T14:25:37.060Z,99240.56
2023-04-26T14:28:04.764Z,99236.53
2023-04-26T14:30:33.127Z,99246.72
2023-04-26T14:33:00.783Z,99250.16
2023-04-26T14:35:28.404Z,99255.31
2023-04-26T14:38:00.941Z,99257.50
2023-04-26T14:40:29.763Z,99247.72
2023-04-26T14:42:57.663Z,99263.25
2023-04-26T14:45:36.883Z,99257.38
2023-04-26T14:48:11.847Z,99258.41
2023-04-26T14:50:39.570Z,99260.84
2023-04-26T14:53:07.452Z,99257.44
2023-04-26T14:55:35.454Z,99259.88
2023-04-26T14:58:03.811Z,99249.84
2023-04-26T15:00:31.497Z,99246.50
2023-04-26T15:02:59.587Z,99252.94
2023-04-26T15:05:27.388Z,99249.56
2023-04-26T15:07:55.177Z,99261.25
2023-04-26T15:10:23.472Z,99260.06
2023-04-26T15:12:51.091Z,99259.31
2023-04-26T15:15:18.876Z,99267.13
2023-04-26T15:17:46.898Z,99267.41
2023-04-26T15:20:14.980Z,99266.78
2023-04-26T15:22:42.879Z,99261.34
2023-04-26T15:25:11.290Z,99271.31
2023-04-26T15:27:41.104Z,99261.16
2023-04-26T15:30:09.565Z,99277.13
2023-04-26T15:32:37.631Z,99279.47
2023-04-26T15:35:05.781Z,99288.47
2023-04-26T15:37:36.711Z,99282.78
2023-04-26T15:40:05.336Z,99287.19
2023-04-26T15:42:33.941Z,99284.44
2023-04-26T15:45:02.093Z,99282.00
2023-04-26T15:47:30.361Z,99284.81
2023-04-26T15:50:05.933Z,99288.09
2023-04-26T15:52:36.888Z,99285.13
2023-04-26T15:55:06.845Z,99295.84
2023-04-26T15:57:34.963Z,99294.44
2023-04-26T16:00:03.052Z,99291.09
2023-04-26T16:02:32.157Z,99296.16
2023-04-26T16:05:00.232Z,99287.81
2023-04-26T16:07:28.014Z,99288.22
2023-04-26T16:09:55.816Z,99290.66
2023-04-26T16:12:23.997Z,99289.84
2023-04-26T16:14:51.599Z,99292.53
2023-04-26T16:17:19.251Z,99294.16
2023-04-26T16:19:47.302Z,99295.56
2023-04-26T16:22:14.935Z,99296.22
2023-04-26T16:24:43.159Z,99297.31
2023-04-26T16:27:11.283Z,99297.59
2023-04-26T16:29:39.203Z,99302.69
2023-04-26T16:32:06.940Z,99311.06
2023-04-26T16:34:34.967Z,99308.84
2023-04-26T16:37:02.592Z,99307.72
2023-04-26T16:39:36.028Z,99316.97
2023-04-26T16:42:06.883Z,99312.88
2023-04-26T16:44:34.621Z,99318.41
2023-04-26T16:47:02.466Z,99311.06
2023-04-26T16:49:47.671Z,99318.84
2023-04-26T16:52:28.573Z,99315.78
2023-04-26T16:54:59.377Z,99320.09
2023-04-26T16:57:27.080Z,99327.38
2023-04-26T16:59:54.818Z,99316.09
2023-04-26T17:02:23.334Z,99331.94
2023-04-26T17:04:51.185Z,99329.66
2023-04-26T17:07:18.918Z,99331.84
2023-04-26T17:09:47.203Z,99339.00
2023-04-26T17:12:14.920Z,99342.22
2023-04-26T17:14:42.586Z,99338.09
2023-04-26T17:17:11.224Z,99341.50
2023-04-26T17:19:39.463Z,99344.69
2023-04-26T17:22:07.213Z,99343.00
2023-04-26T17:24:37.631Z,99352.69
2023-04-26T17:27:05.534Z,99344.25
2023-04-26T17:29:33.907Z,99351.41
2023-04-26T17:32:05.753Z,99346.25
2023-04-26T17:34:34.823Z,99363.06
2023-04-26T17:37:05.559Z,99357.72
2023-04-26T17:39:33.585Z,99364.72
2023-04-26T17:42:01.438Z,99363.88
2023-04-26T17:44:35.514Z,99369.72
2023-04-26T17:47:03.667Z,99373.03
2023-04-26T17:49:33.174Z,99377.78
2023-04-26T17:52:01.124Z,99382.75
2023-04-26T17:54:31.520Z,99391.59
2023-04-26T17:56:59.302Z,99386.41
2023-04-26T17:59:26.968Z,99384.88
2023-04-26T18:01:56.325Z,99392.88
2023-04-26T18:04:24.800Z,99392.59
2023-04-26T18:06:52.967Z,99405.03
2023-04-26T18:09:20.667Z,99400.97
2023-04-26T18:11:48.770Z,99396.81
2023-04-26T18:14:16.651Z,99397.38
2023-04-26T18:16:44.467Z,99400.75
2023-04-26T18:19:12.903Z,99405.13
2023-04-26T18:21:40.767Z,99414.78
2023-04-26T18:24:08.989Z,99419.25
2023-04-26T18:26:41.045Z,99422.28
2023-04-26T18:29:15.357Z,99419.91
2023-04-26T18:31:43.393Z,99422.66
2023-04-26T18:34:11.288Z,99427.22
2023-04-26T18:36:39.280Z,99432.06
2023-04-26T18:39:07.721Z,99432.53
2023-04-26T18:41:35.534Z,99447.19
2023-04-26T18:44:03.263Z,99439.66
2023-04-26T18:46:33.894Z,99438.78
2023-04-26T18:49:02.175Z,99443.50
2023-04-26T18:51:30.074Z,99447.06
2023-04-26T18:53:58.341Z,99448.88
2023-04-26T18:56:26.038Z,99454.00
2023-04-26T18:59:00.007Z,99460.22
2023-04-26T19:01:32.204Z,99450.19
2023-04-26T19:04:00.641Z,99454.31
2023-04-26T19:06:28.646Z,99455.81
2023-04-26T19:08:58.885Z,99458.47
2023-04-26T19:11:27.135Z,99457.03
2023-04-26T19:13:55.592Z,99447.97
2023-04-26T19:16:23.334Z,99460.50
2023-04-26T19:18:52.221Z,99453.38
2023-04-26T19:21:21.828Z,99459.59
2023-04-26T19:23:49.842Z,99455.91
2023-04-26T19:26:17.491Z,99471.44
2023-04-26T19:28:46.317Z,99471.47
2023-04-26T19:31:14.250Z,99467.87
2023-04-26T19:33:42.368Z,99469.81
2023-04-26T19:36:11.579Z,99468.84
2023-04-26T19:38:39.196Z,99470.16
2023-04-26T19:41:07.455Z,99467.19
2023-04-26T19:43:35.688Z,99470.16
2023-04-26T19:46:11.266Z,99477.75
2023-04-26T19:48:40.419Z,99475.13
2023-04-26T19:51:14.534Z,99481.69
2023-04-26T19:53:43.411Z,99484.41
2023-04-26T19:56:12.571Z,99484.97
2023-04-26T19:58:40.411Z,99482.59
2023-04-26T20:01:09.150Z,99483.28
2023-04-26T20:03:37.730Z,99488.16
2023-04-26T20:06:05.787Z,99483.13
2023-04-26T20:08:33.774Z,99488.19
2023-04-26T20:11:02.868Z,99490.47
2023-04-26T20:13:31.426Z,99493.16
2023-04-26T20:15:59.320Z,99484.00
2023-04-26T20:18:27.858Z,99487.50
2023-04-26T20:20:55.981Z,99490.91
2023-04-26T20:23:24.088Z,99493.56
2023-04-26T20:25:52.250Z,99496.22
2023-04-26T20:28:20.057Z,99497.00
2023-04-26T20:30:48.091Z,99496.09
2023-04-26T20:33:16.653Z,99500.41
2023-04-26T20:35:44.928Z,99499.84
2023-04-26T20:38:12.759Z,99498.28
2023-04-26T20:40:41.016Z,99506.81
2023-04-26T20:43:09.272Z,99505.97
2023-04-26T20:45:37.153Z,99513.66
2023-04-26T20:48:05.724Z,99518.28
2023-04-26T20:50:35.344Z,99518.03
2023-04-26T20:53:04.318Z,99510.25
2023-04-26T20:55:32.408Z,99510.28
2023-04-26T20:58:00.843Z,99505.41
2023-04-26T21:00:28.476Z,99500.38
2023-04-26T21:02:56.688Z,99503.34
2023-04-26T21:05:24.631Z,99498.56
2023-04-26T21:07:52.477Z,99510.22
2023-04-26T21:10:20.561Z,99504.34
2023-04-26T21:12:48.232Z,99509.19
2023-04-26T21:15:15.851Z,99513.41
2023-04-26T21:17:43.826Z,99523.06
2023-04-26T21:20:11.855Z,99519.84
2023-04-26T21:22:39.705Z,99522.81
2023-04-26T21:25:08.223Z,99526.84
2023-04-26T21:27:36.182Z,99524.75
2023-04-26T21:30:04.259Z,99524.50
2023-04-26T21:32:32.482Z,99527.94
2023-04-26T21:35:00.186Z,99525.56
2023-04-26T21:37:27.763Z,99533.56
2023-04-26T21:39:55.758Z,99533.06
2023-04-26T21:42:23.742Z,99534.63
2023-04-26T21:44:51.407Z,99540.47
2023-04-26T21:47:19.365Z,99536.75
2023-04-26T21:49:47.264Z,99534.91
2023-04-26T21:52:15.297Z,99547.41
2023-04-26T21:54:43.444Z,99541.28
2023-04-26T21:57:11.252Z,99544.19
2023-04-26T21:59:38.904Z,99546.88
2023-04-26T22:02:06.917Z,99549.28
2023-04-26T22:04:34.940Z,99545.56
2023-04-26T22:07:02.639Z,99549.00
2023-04-26T22:09:31.746Z,99559.41
2023-04-26T22:11:59.715Z,99562.66
2023-04-26T22:14:27.620Z,99565.81
2023-04-26T22:16:55.279Z,99565.56
2023-04-26T22:19:23.216Z,99570.38
2023-04-26T22:21:51.369Z,99569.59
2023-04-26T22:24:19.289Z,99572.75
2023-04-26T22:26:47.232Z,99567.19
2023-04-26T22:29:14.990Z,99574.37
2023-04-26T22:31:43.032Z,99565.84
2023-04-26T22:34:11.618Z,99581.56
2023-04-26T22:36:39.616Z,99576.78
2023-04-26T22:39:07.468Z,99576.75
2023-04-26T22:41:35.501Z,99587.44
2023-04-26T22:44:03.995Z,99576.50
2023-04-26T22:46:31.778Z,99579.44
2023-04-26T22:48:59.738Z,99580.78
2023-04-26T22:51:27.617Z,99582.06
2023-04-26T22:53:55.329Z,99579.16
2023-04-26T22:56:23.370Z,99585.84
2023-04-26T22:58:50.967Z,99586.09
2023-04-26T23:01:18.728Z,99591.44
2023-04-26T23:03:47.196Z,99589.25
2023-04-26T23:06:15.147Z,99590.31
2023-04-26T23:08:42.737Z,99589.78
2023-04-26T23:11:10.786Z,99580.72
2023-04-26T23:13:38.432Z,99590.31
2023-04-26T23:16:06.623Z,99584.69
2023-04-26T23:18:34.913Z,99585.25
2023-04-26T23:21:04.604Z,99592.13
2023-04-26T23:23:32.357Z,99590.53
2023-04-26T23:26:00.236Z,99591.59
2023-04-26T23:28:28.904Z,99606.00
2023-04-26T23:30:56.604Z,99598.44
2023-04-26T23:33:24.674Z,99609.38
2023-04-26T23:35:55.085Z,99606.19
2023-04-26T23:38:22.946Z,99604.63
2023-04-26T23:40:50.992Z,99609.63
2023-04-26T23:43:18.754Z,99610.97
2023-04-26T23:45:46.974Z,99606.69
2023-04-26T23:48:15.329Z,99608.28
2023-04-26T23:50:43.225Z,99608.31
2023-04-26T23:53:11.328Z,99613.66
2023-04-26T23:55:39.553Z,99608.09
2023-04-26T23:58:07.322Z,99607.03
